ニース/コート・ダジュール の空港の天気 - METARとTAF

コート・ダジュール空港(ニース) ( LFMN / NCE ) - フランス ニース
飛行場実況気象(Metar)
観測時間07/02 15:30 CEST (07/02 13:30 UTC)
風向・風速南 4m/s
視程10km以上
天気現象
全天の4割程度の雲 雲底高度 460m
全天の8割程度の雲 雲底高度 760m
全天の8割程度の雲 雲底高度 980m
気温26℃
湿度79%
気圧1012hPa
METARLFMN 021330Z AUTO 19007KT 9999 SCT015 BKN025 BKN032 26/22 Q1012 TEMPO SCT014 FEW060TCU
過去の天気等 Google飛行場航空写真 Wunderground天気予報

過去48時間のMETAR

飛行場予報(TAF)
発表時間: 7/02 10:00 CEST (7/02 08:00 UTC)
予報対象時間: 2日11時 CEST ~ 3日17時 CEST
風向・風速不定 3m/s
視程10km以上
少しの雲 雲底高度 460m
2日11時 CEST ~ 2日12時 CEST に徐々に
風向・風速南南東 5m/s
視程10km以上
なし
2日14時 CEST ~ 2日19時 CEST に 確率 40% で一時的に
全天の4割程度の雲 雲底高度 430m
少しの塔状積雲 雲底高度 1830m
2日19時 CEST ~ 2日22時 CEST に一時的に
風向・風速東 5m/s
2日22時 CEST ~ 3日1時 CEST に徐々に
風向・風速北北西 5m/s
3日2時 CEST ~ 3日9時 CEST に一時的に
全天の8割程度の雲 雲底高度 430m
3日9時 CEST ~ 3日12時 CEST に徐々に
風向・風速南南東 3m/s
少しの雲 雲底高度 610m
3日14時 CEST ~ 3日17時 CEST に徐々に
風向・風速東 6m/s
視程10km以上
なし
TAF LFMN 020800Z 0209/0315 VRB05KT 9999 FEW015
BECMG 0209/0210 16010KT CAVOK
PROB40 TEMPO 0212/0217 SCT014 FEW060TCU
TEMPO 0217/0220 08010KT
BECMG 0220/0223 33010KT
TEMPO 0300/0307 BKN014
BECMG 0307/0310 16006KT FEW020
BECMG 0312/0315 08012KT CAVOK